sensor_id;sensor_type;location;lat;lon;timestamp;P1;durP1;ratioP1;P2;durP2;ratioP2
38226;SDS011;24026;49.446;8.576;2023-06-19T00:01:36;177.25;;;162.90;;
38226;SDS011;24026;49.446;8.576;2023-06-19T00:03:56;176.40;;;162.07;;
38226;SDS011;24026;49.446;8.576;2023-06-19T00:06:17;175.73;;;161.40;;
38226;SDS011;24026;49.446;8.576;2023-06-19T00:08:37;178.82;;;164.38;;
38226;SDS011;24026;49.446;8.576;2023-06-19T00:10:58;175.93;;;161.60;;
38226;SDS011;24026;49.446;8.576;2023-06-19T00:13:18;176.20;;;161.85;;
38226;SDS011;24026;49.446;8.576;2023-06-19T00:15:39;175.38;;;161.05;;
38226;SDS011;24026;49.446;8.576;2023-06-19T00:17:59;174.70;;;160.35;;
38226;SDS011;24026;49.446;8.576;2023-06-19T00:20:20;175.93;;;161.60;;
38226;SDS011;24026;49.446;8.576;2023-06-19T00:22:40;176.55;;;162.18;;
38226;SDS011;24026;49.446;8.576;2023-06-19T00:25:01;176.73;;;162.43;;
38226;SDS011;24026;49.446;8.576;2023-06-19T00:27:22;175.93;;;161.48;;
38226;SDS011;24026;49.446;8.576;2023-06-19T00:29:44;176.20;;;161.95;;
38226;SDS011;24026;49.446;8.576;2023-06-19T00:32:04;177.15;;;162.55;;
38226;SDS011;24026;49.446;8.576;2023-06-19T00:34:25;176.27;;;161.93;;
38226;SDS011;24026;49.446;8.576;2023-06-19T00:36:45;175.70;;;161.43;;
38226;SDS011;24026;49.446;8.576;2023-06-19T00:39:07;177.32;;;162.93;;
38226;SDS011;24026;49.446;8.576;2023-06-19T00:41:28;177.18;;;162.75;;
38226;SDS011;24026;49.446;8.576;2023-06-19T00:43:50;174.65;;;160.40;;
38226;SDS011;24026;49.446;8.576;2023-06-19T00:46:12;174.65;;;160.45;;
38226;SDS011;24026;49.446;8.576;2023-06-19T00:48:33;175.02;;;160.75;;
38226;SDS011;24026;49.446;8.576;2023-06-19T00:50:56;175.68;;;161.27;;
38226;SDS011;24026;49.446;8.576;2023-06-19T00:53:17;176.10;;;161.75;;
38226;SDS011;24026;49.446;8.576;2023-06-19T00:55:39;174.13;;;159.73;;
38226;SDS011;24026;49.446;8.576;2023-06-19T00:58:00;175.43;;;161.02;;
38226;SDS011;24026;49.446;8.576;2023-06-19T01:00:21;174.07;;;159.90;;
38226;SDS011;24026;49.446;8.576;2023-06-19T01:02:42;175.63;;;161.23;;
38226;SDS011;24026;49.446;8.576;2023-06-19T01:05:02;177.18;;;162.70;;
38226;SDS011;24026;49.446;8.576;2023-06-19T01:07:44;174.45;;;160.02;;
38226;SDS011;24026;49.446;8.576;2023-06-19T01:10:11;176.75;;;162.25;;
38226;SDS011;24026;49.446;8.576;2023-06-19T01:12:36;176.88;;;162.38;;
38226;SDS011;24026;49.446;8.576;2023-06-19T01:15:00;176.13;;;161.68;;
38226;SDS011;24026;49.446;8.576;2023-06-19T01:17:23;177.50;;;163.10;;
38226;SDS011;24026;49.446;8.576;2023-06-19T01:19:45;172.77;;;158.50;;
38226;SDS011;24026;49.446;8.576;2023-06-19T01:22:06;175.27;;;160.93;;
38226;SDS011;24026;49.446;8.576;2023-06-19T01:24:26;175.48;;;161.15;;
38226;SDS011;24026;49.446;8.576;2023-06-19T01:26:47;173.77;;;159.38;;
38226;SDS011;24026;49.446;8.576;2023-06-19T01:29:07;174.18;;;159.85;;
38226;SDS011;24026;49.446;8.576;2023-06-19T01:31:33;174.73;;;160.25;;
38226;SDS011;24026;49.446;8.576;2023-06-19T01:33:57;174.60;;;160.30;;
38226;SDS011;24026;49.446;8.576;2023-06-19T01:36:19;175.50;;;161.10;;
38226;SDS011;24026;49.446;8.576;2023-06-19T01:38:40;174.90;;;160.50;;
38226;SDS011;24026;49.446;8.576;2023-06-19T01:41:03;174.27;;;160.02;;
38226;SDS011;24026;49.446;8.576;2023-06-19T01:43:27;173.93;;;159.60;;
38226;SDS011;24026;49.446;8.576;2023-06-19T01:45:49;175.50;;;160.95;;
38226;SDS011;24026;49.446;8.576;2023-06-19T01:48:10;175.00;;;160.60;;
38226;SDS011;24026;49.446;8.576;2023-06-19T01:50:31;175.90;;;161.60;;
38226;SDS011;24026;49.446;8.576;2023-06-19T01:52:51;175.57;;;161.23;;
38226;SDS011;24026;49.446;8.576;2023-06-19T01:55:12;174.30;;;159.93;;
38226;SDS011;24026;49.446;8.576;2023-06-19T01:57:34;173.07;;;158.73;;
38226;SDS011;24026;49.446;8.576;2023-06-19T01:59:56;174.32;;;160.02;;
38226;SDS011;24026;49.446;8.576;2023-06-19T02:02:16;174.65;;;160.32;;
38226;SDS011;24026;49.446;8.576;2023-06-19T02:04:37;175.25;;;160.65;;
38226;SDS011;24026;49.446;8.576;2023-06-19T02:06:57;178.07;;;163.57;;
38226;SDS011;24026;49.446;8.576;2023-06-19T02:09:17;174.30;;;159.98;;
38226;SDS011;24026;49.446;8.576;2023-06-19T02:11:38;173.85;;;159.52;;
38226;SDS011;24026;49.446;8.576;2023-06-19T02:13:58;173.13;;;158.73;;
38226;SDS011;24026;49.446;8.576;2023-06-19T02:16:18;171.85;;;157.63;;
38226;SDS011;24026;49.446;8.576;2023-06-19T02:18:39;174.50;;;160.18;;
38226;SDS011;24026;49.446;8.576;2023-06-19T02:20:59;175.63;;;161.25;;
38226;SDS011;24026;49.446;8.576;2023-06-19T02:23:19;176.98;;;162.52;;
38226;SDS011;24026;49.446;8.576;2023-06-19T02:25:40;175.88;;;161.50;;
38226;SDS011;24026;49.446;8.576;2023-06-19T02:28:00;174.07;;;159.77;;
38226;SDS011;24026;49.446;8.576;2023-06-19T02:30:21;173.43;;;159.07;;
38226;SDS011;24026;49.446;8.576;2023-06-19T02:32:41;175.23;;;160.73;;
38226;SDS011;24026;49.446;8.576;2023-06-19T02:35:02;174.63;;;160.25;;
38226;SDS011;24026;49.446;8.576;2023-06-19T02:37:24;175.93;;;161.32;;
38226;SDS011;24026;49.446;8.576;2023-06-19T02:39:45;176.50;;;162.15;;
38226;SDS011;24026;49.446;8.576;2023-06-19T02:42:05;173.85;;;159.52;;
38226;SDS011;24026;49.446;8.576;2023-06-19T02:44:26;176.13;;;161.65;;
38226;SDS011;24026;49.446;8.576;2023-06-19T02:46:46;172.75;;;158.50;;
38226;SDS011;24026;49.446;8.576;2023-06-19T02:49:07;176.00;;;161.57;;
38226;SDS011;24026;49.446;8.576;2023-06-19T02:51:27;174.55;;;160.18;;
38226;SDS011;24026;49.446;8.576;2023-06-19T02:53:47;174.05;;;159.68;;
38226;SDS011;24026;49.446;8.576;2023-06-19T02:56:08;174.23;;;159.63;;
38226;SDS011;24026;49.446;8.576;2023-06-19T02:58:28;172.85;;;158.57;;
38226;SDS011;24026;49.446;8.576;2023-06-19T03:00:49;175.00;;;160.57;;
38226;SDS011;24026;49.446;8.576;2023-06-19T03:03:09;177.35;;;162.35;;
38226;SDS011;24026;49.446;8.576;2023-06-19T03:05:29;176.70;;;162.20;;
38226;SDS011;24026;49.446;8.576;2023-06-19T03:07:50;174.27;;;159.85;;
38226;SDS011;24026;49.446;8.576;2023-06-19T03:10:10;174.85;;;160.50;;
38226;SDS011;24026;49.446;8.576;2023-06-19T03:12:31;176.50;;;162.05;;
38226;SDS011;24026;49.446;8.576;2023-06-19T03:14:51;174.57;;;160.20;;
38226;SDS011;24026;49.446;8.576;2023-06-19T03:17:12;174.10;;;159.70;;
38226;SDS011;24026;49.446;8.576;2023-06-19T03:19:32;175.18;;;160.60;;
38226;SDS011;24026;49.446;8.576;2023-06-19T03:21:54;174.48;;;160.05;;
38226;SDS011;24026;49.446;8.576;2023-06-19T03:24:14;175.70;;;161.23;;
38226;SDS011;24026;49.446;8.576;2023-06-19T03:26:35;174.65;;;160.25;;
38226;SDS011;24026;49.446;8.576;2023-06-19T03:28:55;174.70;;;160.25;;
38226;SDS011;24026;49.446;8.576;2023-06-19T03:31:15;174.93;;;160.52;;
38226;SDS011;24026;49.446;8.576;2023-06-19T03:33:36;175.07;;;160.60;;
38226;SDS011;24026;49.446;8.576;2023-06-19T03:35:56;173.55;;;159.00;;
38226;SDS011;24026;49.446;8.576;2023-06-19T03:38:17;173.55;;;159.27;;
38226;SDS011;24026;49.446;8.576;2023-06-19T03:40:37;175.25;;;160.85;;
38226;SDS011;24026;49.446;8.576;2023-06-19T03:42:57;173.35;;;159.05;;
38226;SDS011;24026;49.446;8.576;2023-06-19T03:45:18;170.70;;;156.35;;
38226;SDS011;24026;49.446;8.576;2023-06-19T03:47:38;174.75;;;160.43;;
38226;SDS011;24026;49.446;8.576;2023-06-19T03:49:58;173.25;;;158.88;;
38226;SDS011;24026;49.446;8.576;2023-06-19T03:52:19;174.50;;;160.05;;
38226;SDS011;24026;49.446;8.576;2023-06-19T03:54:39;173.55;;;159.25;;
38226;SDS011;24026;49.446;8.576;2023-06-19T03:57:00;173.23;;;158.93;;
38226;SDS011;24026;49.446;8.576;2023-06-19T03:59:20;172.57;;;158.40;;
38226;SDS011;24026;49.446;8.576;2023-06-19T04:01:41;170.48;;;156.23;;
38226;SDS011;24026;49.446;8.576;2023-06-19T04:04:01;173.73;;;159.38;;
38226;SDS011;24026;49.446;8.576;2023-06-19T04:06:22;171.82;;;157.52;;
38226;SDS011;24026;49.446;8.576;2023-06-19T04:08:42;173.10;;;158.82;;
38226;SDS011;24026;49.446;8.576;2023-06-19T04:11:03;173.70;;;159.30;;
38226;SDS011;24026;49.446;8.576;2023-06-19T04:13:23;174.15;;;159.85;;
38226;SDS011;24026;49.446;8.576;2023-06-19T04:15:46;174.38;;;159.88;;
38226;SDS011;24026;49.446;8.576;2023-06-19T04:18:07;171.40;;;157.05;;
38226;SDS011;24026;49.446;8.576;2023-06-19T04:20:27;173.73;;;159.43;;
38226;SDS011;24026;49.446;8.576;2023-06-19T04:22:48;173.02;;;158.63;;
38226;SDS011;24026;49.446;8.576;2023-06-19T04:25:08;172.82;;;158.63;;
38226;SDS011;24026;49.446;8.576;2023-06-19T04:27:32;172.63;;;158.30;;
38226;SDS011;24026;49.446;8.576;2023-06-19T04:29:53;172.90;;;158.63;;
38226;SDS011;24026;49.446;8.576;2023-06-19T04:32:13;172.18;;;157.95;;
38226;SDS011;24026;49.446;8.576;2023-06-19T04:34:33;172.98;;;158.65;;
38226;SDS011;24026;49.446;8.576;2023-06-19T04:36:54;174.20;;;159.77;;
38226;SDS011;24026;49.446;8.576;2023-06-19T04:39:19;173.48;;;159.13;;
38226;SDS011;24026;49.446;8.576;2023-06-19T04:41:39;171.40;;;157.07;;
38226;SDS011;24026;49.446;8.576;2023-06-19T04:44:01;171.23;;;156.95;;
38226;SDS011;24026;49.446;8.576;2023-06-19T04:46:23;172.35;;;158.10;;
38226;SDS011;24026;49.446;8.576;2023-06-19T04:48:43;169.63;;;155.43;;
38226;SDS011;24026;49.446;8.576;2023-06-19T04:51:04;172.57;;;158.27;;
38226;SDS011;24026;49.446;8.576;2023-06-19T04:53:24;172.93;;;158.52;;
38226;SDS011;24026;49.446;8.576;2023-06-19T04:55:45;171.32;;;157.05;;
38226;SDS011;24026;49.446;8.576;2023-06-19T04:58:06;173.82;;;159.23;;
38226;SDS011;24026;49.446;8.576;2023-06-19T05:00:27;170.45;;;156.30;;
38226;SDS011;24026;49.446;8.576;2023-06-19T05:02:49;172.02;;;157.68;;
38226;SDS011;24026;49.446;8.576;2023-06-19T05:05:10;173.60;;;159.02;;
38226;SDS011;24026;49.446;8.576;2023-06-19T05:07:31;175.85;;;161.38;;
38226;SDS011;24026;49.446;8.576;2023-06-19T05:09:54;174.48;;;160.10;;
38226;SDS011;24026;49.446;8.576;2023-06-19T05:12:16;176.63;;;162.05;;
38226;SDS011;24026;49.446;8.576;2023-06-19T05:14:36;180.00;;;164.77;;
38226;SDS011;24026;49.446;8.576;2023-06-19T05:16:57;178.02;;;162.98;;
38226;SDS011;24026;49.446;8.576;2023-06-19T05:19:17;173.98;;;159.27;;
38226;SDS011;24026;49.446;8.576;2023-06-19T05:21:37;174.40;;;159.10;;
38226;SDS011;24026;49.446;8.576;2023-06-19T05:23:58;172.05;;;157.60;;
38226;SDS011;24026;49.446;8.576;2023-06-19T05:26:21;172.60;;;158.07;;
38226;SDS011;24026;49.446;8.576;2023-06-19T05:28:42;169.18;;;154.57;;
38226;SDS011;24026;49.446;8.576;2023-06-19T05:31:03;174.40;;;159.52;;
38226;SDS011;24026;49.446;8.576;2023-06-19T05:33:24;168.90;;;154.40;;
38226;SDS011;24026;49.446;8.576;2023-06-19T05:35:45;169.65;;;155.35;;
38226;SDS011;24026;49.446;8.576;2023-06-19T05:38:13;172.68;;;157.88;;
38226;SDS011;24026;49.446;8.576;2023-06-19T05:40:34;171.73;;;156.82;;
38226;SDS011;24026;49.446;8.576;2023-06-19T05:42:54;178.15;;;163.25;;
38226;SDS011;24026;49.446;8.576;2023-06-19T05:45:16;179.60;;;163.80;;
38226;SDS011;24026;49.446;8.576;2023-06-19T05:47:36;180.55;;;165.65;;
38226;SDS011;24026;49.446;8.576;2023-06-19T05:49:57;176.93;;;162.05;;
38226;SDS011;24026;49.446;8.576;2023-06-19T05:52:19;168.43;;;153.70;;
38226;SDS011;24026;49.446;8.576;2023-06-19T05:54:41;175.60;;;159.75;;
38226;SDS011;24026;49.446;8.576;2023-06-19T05:57:02;172.90;;;157.18;;
38226;SDS011;24026;49.446;8.576;2023-06-19T05:59:24;176.88;;;160.02;;
38226;SDS011;24026;49.446;8.576;2023-06-19T06:01:44;169.10;;;153.45;;
38226;SDS011;24026;49.446;8.576;2023-06-19T06:04:05;172.10;;;155.73;;
38226;SDS011;24026;49.446;8.576;2023-06-19T06:06:26;171.35;;;154.85;;
38226;SDS011;24026;49.446;8.576;2023-06-19T06:08:49;171.40;;;155.10;;
38226;SDS011;24026;49.446;8.576;2023-06-19T06:11:11;166.32;;;151.25;;
38226;SDS011;24026;49.446;8.576;2023-06-19T06:13:31;167.05;;;152.07;;
38226;SDS011;24026;49.446;8.576;2023-06-19T06:15:52;166.50;;;151.77;;
38226;SDS011;24026;49.446;8.576;2023-06-19T06:18:12;166.00;;;151.23;;
38226;SDS011;24026;49.446;8.576;2023-06-19T06:20:32;166.73;;;151.80;;
38226;SDS011;24026;49.446;8.576;2023-06-19T06:22:53;170.35;;;155.43;;
38226;SDS011;24026;49.446;8.576;2023-06-19T06:25:13;170.20;;;154.98;;
38226;SDS011;24026;49.446;8.576;2023-06-19T06:27:34;168.05;;;153.48;;
38226;SDS011;24026;49.446;8.576;2023-06-19T06:29:54;167.65;;;153.35;;
38226;SDS011;24026;49.446;8.576;2023-06-19T06:32:16;167.90;;;152.75;;
38226;SDS011;24026;49.446;8.576;2023-06-19T06:34:36;166.00;;;151.60;;
38226;SDS011;24026;49.446;8.576;2023-06-19T06:37:01;168.52;;;154.02;;
38226;SDS011;24026;49.446;8.576;2023-06-19T06:39:22;167.10;;;152.50;;
38226;SDS011;24026;49.446;8.576;2023-06-19T06:41:43;169.85;;;155.25;;
38226;SDS011;24026;49.446;8.576;2023-06-19T06:44:03;169.50;;;154.80;;
38226;SDS011;24026;49.446;8.576;2023-06-19T06:46:24;193.95;;;177.05;;
38226;SDS011;24026;49.446;8.576;2023-06-19T06:48:44;185.00;;;168.95;;
38226;SDS011;24026;49.446;8.576;2023-06-19T06:51:05;199.30;;;181.50;;
38226;SDS011;24026;49.446;8.576;2023-06-19T06:53:25;193.93;;;176.98;;
38226;SDS011;24026;49.446;8.576;2023-06-19T06:55:49;184.85;;;168.68;;
38226;SDS011;24026;49.446;8.576;2023-06-19T06:58:09;180.43;;;164.65;;
38226;SDS011;24026;49.446;8.576;2023-06-19T07:00:31;176.85;;;161.27;;
38226;SDS011;24026;49.446;8.576;2023-06-19T07:02:51;174.52;;;159.20;;
38226;SDS011;24026;49.446;8.576;2023-06-19T07:05:12;171.13;;;156.00;;
38226;SDS011;24026;49.446;8.576;2023-06-19T07:07:32;172.70;;;157.75;;
38226;SDS011;24026;49.446;8.576;2023-06-19T07:09:53;169.43;;;154.60;;
38226;SDS011;24026;49.446;8.576;2023-06-19T07:12:14;168.98;;;154.45;;
38226;SDS011;24026;49.446;8.576;2023-06-19T07:14:36;168.90;;;154.40;;
38226;SDS011;24026;49.446;8.576;2023-06-19T07:16:58;171.13;;;156.23;;
38226;SDS011;24026;49.446;8.576;2023-06-19T07:19:19;170.10;;;155.10;;
38226;SDS011;24026;49.446;8.576;2023-06-19T07:21:39;167.50;;;153.07;;
38226;SDS011;24026;49.446;8.576;2023-06-19T07:24:01;166.75;;;152.55;;
38226;SDS011;24026;49.446;8.576;2023-06-19T07:26:21;165.55;;;151.32;;
38226;SDS011;24026;49.446;8.576;2023-06-19T07:28:42;167.18;;;153.00;;
38226;SDS011;24026;49.446;8.576;2023-06-19T07:31:02;167.63;;;153.27;;
38226;SDS011;24026;49.446;8.576;2023-06-19T07:33:23;169.55;;;155.07;;
38226;SDS011;24026;49.446;8.576;2023-06-19T07:35:44;169.93;;;155.02;;
38226;SDS011;24026;49.446;8.576;2023-06-19T07:38:04;169.13;;;154.43;;
38226;SDS011;24026;49.446;8.576;2023-06-19T07:40:24;167.32;;;152.88;;
38226;SDS011;24026;49.446;8.576;2023-06-19T07:42:45;167.52;;;153.23;;
38226;SDS011;24026;49.446;8.576;2023-06-19T07:45:05;167.40;;;152.93;;
38226;SDS011;24026;49.446;8.576;2023-06-19T07:47:26;168.63;;;154.35;;
38226;SDS011;24026;49.446;8.576;2023-06-19T07:49:47;168.45;;;153.82;;
38226;SDS011;24026;49.446;8.576;2023-06-19T07:52:07;168.35;;;154.00;;
38226;SDS011;24026;49.446;8.576;2023-06-19T07:54:29;169.35;;;154.75;;
38226;SDS011;24026;49.446;8.576;2023-06-19T07:56:50;170.68;;;155.57;;
38226;SDS011;24026;49.446;8.576;2023-06-19T07:59:10;172.07;;;157.00;;
38226;SDS011;24026;49.446;8.576;2023-06-19T08:01:31;173.13;;;158.00;;
38226;SDS011;24026;49.446;8.576;2023-06-19T08:03:51;174.88;;;159.85;;
38226;SDS011;24026;49.446;8.576;2023-06-19T08:06:12;174.13;;;159.10;;
38226;SDS011;24026;49.446;8.576;2023-06-19T08:08:33;172.52;;;157.60;;
38226;SDS011;24026;49.446;8.576;2023-06-19T08:10:53;177.50;;;161.63;;
38226;SDS011;24026;49.446;8.576;2023-06-19T08:13:13;174.00;;;158.20;;
38226;SDS011;24026;49.446;8.576;2023-06-19T08:15:34;172.90;;;157.35;;
38226;SDS011;24026;49.446;8.576;2023-06-19T08:17:55;175.68;;;159.55;;
38226;SDS011;24026;49.446;8.576;2023-06-19T08:20:15;170.88;;;156.07;;
38226;SDS011;24026;49.446;8.576;2023-06-19T08:22:36;171.70;;;156.90;;
38226;SDS011;24026;49.446;8.576;2023-06-19T08:24:56;170.38;;;155.38;;
38226;SDS011;24026;49.446;8.576;2023-06-19T08:27:17;172.38;;;157.13;;
38226;SDS011;24026;49.446;8.576;2023-06-19T08:29:37;169.15;;;154.40;;
38226;SDS011;24026;49.446;8.576;2023-06-19T08:31:57;168.30;;;153.43;;
38226;SDS011;24026;49.446;8.576;2023-06-19T08:34:18;166.02;;;151.80;;
38226;SDS011;24026;49.446;8.576;2023-06-19T08:36:38;167.88;;;152.90;;
38226;SDS011;24026;49.446;8.576;2023-06-19T08:38:59;169.35;;;154.68;;
38226;SDS011;24026;49.446;8.576;2023-06-19T08:41:19;170.38;;;155.52;;
38226;SDS011;24026;49.446;8.576;2023-06-19T08:43:39;166.50;;;152.18;;
38226;SDS011;24026;49.446;8.576;2023-06-19T08:48:34;170.02;;;154.77;;
38226;SDS011;24026;49.446;8.576;2023-06-19T08:50:55;172.07;;;157.05;;
38226;SDS011;24026;49.446;8.576;2023-06-19T08:53:15;171.48;;;156.32;;
38226;SDS011;24026;49.446;8.576;2023-06-19T08:55:36;169.18;;;154.02;;
38226;SDS011;24026;49.446;8.576;2023-06-19T08:57:56;169.00;;;154.20;;
38226;SDS011;24026;49.446;8.576;2023-06-19T09:00:23;169.85;;;154.98;;
38226;SDS011;24026;49.446;8.576;2023-06-19T09:02:47;165.93;;;151.75;;
38226;SDS011;24026;49.446;8.576;2023-06-19T09:05:14;167.75;;;152.70;;
38226;SDS011;24026;49.446;8.576;2023-06-19T09:07:37;165.88;;;151.50;;
38226;SDS011;24026;49.446;8.576;2023-06-19T09:09:58;167.20;;;152.75;;
38226;SDS011;24026;49.446;8.576;2023-06-19T09:12:18;165.60;;;151.35;;
38226;SDS011;24026;49.446;8.576;2023-06-19T09:14:42;167.40;;;152.80;;
38226;SDS011;24026;49.446;8.576;2023-06-19T09:17:04;166.15;;;151.65;;
38226;SDS011;24026;49.446;8.576;2023-06-19T09:19:26;165.77;;;151.60;;
38226;SDS011;24026;49.446;8.576;2023-06-19T09:21:47;166.20;;;151.95;;
38226;SDS011;24026;49.446;8.576;2023-06-19T09:24:08;165.63;;;151.30;;
38226;SDS011;24026;49.446;8.576;2023-06-19T09:26:28;165.75;;;151.63;;
38226;SDS011;24026;49.446;8.576;2023-06-19T09:28:50;167.00;;;152.20;;
38226;SDS011;24026;49.446;8.576;2023-06-19T09:31:11;166.07;;;151.85;;
38226;SDS011;24026;49.446;8.576;2023-06-19T09:33:33;165.20;;;151.10;;
38226;SDS011;24026;49.446;8.576;2023-06-19T09:35:55;164.15;;;150.07;;
38226;SDS011;24026;49.446;8.576;2023-06-19T09:38:17;166.35;;;152.23;;
38226;SDS011;24026;49.446;8.576;2023-06-19T09:40:38;169.30;;;154.82;;
38226;SDS011;24026;49.446;8.576;2023-06-19T09:42:58;167.32;;;152.82;;
38226;SDS011;24026;49.446;8.576;2023-06-19T09:45:21;167.68;;;153.50;;
38226;SDS011;24026;49.446;8.576;2023-06-19T09:47:44;167.65;;;153.23;;
38226;SDS011;24026;49.446;8.576;2023-06-19T09:50:06;167.88;;;153.65;;
38226;SDS011;24026;49.446;8.576;2023-06-19T09:52:27;167.77;;;153.68;;
38226;SDS011;24026;49.446;8.576;2023-06-19T09:54:49;169.27;;;154.65;;
38226;SDS011;24026;49.446;8.576;2023-06-19T09:57:13;170.45;;;156.18;;
38226;SDS011;24026;49.446;8.576;2023-06-19T09:59:33;168.00;;;153.55;;
38226;SDS011;24026;49.446;8.576;2023-06-19T10:01:54;166.20;;;152.02;;
38226;SDS011;24026;49.446;8.576;2023-06-19T10:04:15;169.05;;;154.68;;
38226;SDS011;24026;49.446;8.576;2023-06-19T10:06:46;169.18;;;154.85;;
38226;SDS011;24026;49.446;8.576;2023-06-19T10:09:09;167.00;;;152.90;;
38226;SDS011;24026;49.446;8.576;2023-06-19T10:11:43;168.88;;;154.55;;
38226;SDS011;24026;49.446;8.576;2023-06-19T10:14:07;170.23;;;155.85;;
38226;SDS011;24026;49.446;8.576;2023-06-19T10:16:28;168.88;;;154.25;;
38226;SDS011;24026;49.446;8.576;2023-06-19T10:18:48;169.50;;;155.02;;
38226;SDS011;24026;49.446;8.576;2023-06-19T10:21:19;168.73;;;154.57;;
38226;SDS011;24026;49.446;8.576;2023-06-19T10:23:41;173.00;;;158.48;;
38226;SDS011;24026;49.446;8.576;2023-06-19T10:26:02;172.52;;;158.13;;
38226;SDS011;24026;49.446;8.576;2023-06-19T10:28:29;174.48;;;159.80;;
38226;SDS011;24026;49.446;8.576;2023-06-19T10:30:58;175.40;;;160.82;;
38226;SDS011;24026;49.446;8.576;2023-06-19T10:33:24;175.07;;;160.30;;
38226;SDS011;24026;49.446;8.576;2023-06-19T10:35:48;176.60;;;161.73;;
38226;SDS011;24026;49.446;8.576;2023-06-19T10:38:13;177.10;;;162.05;;
38226;SDS011;24026;49.446;8.576;2023-06-19T10:40:35;180.27;;;164.80;;
38226;SDS011;24026;49.446;8.576;2023-06-19T10:43:00;179.23;;;163.90;;
38226;SDS011;24026;49.446;8.576;2023-06-19T10:45:23;178.45;;;163.48;;
38226;SDS011;24026;49.446;8.576;2023-06-19T10:47:49;178.77;;;163.63;;
38226;SDS011;24026;49.446;8.576;2023-06-19T10:50:11;176.43;;;161.88;;
38226;SDS011;24026;49.446;8.576;2023-06-19T10:52:34;174.90;;;160.25;;
38226;SDS011;24026;49.446;8.576;2023-06-19T10:55:05;173.38;;;158.57;;
38226;SDS011;24026;49.446;8.576;2023-06-19T10:57:26;174.63;;;160.00;;
38226;SDS011;24026;49.446;8.576;2023-06-19T10:59:50;173.82;;;159.32;;
38226;SDS011;24026;49.446;8.576;2023-06-19T11:02:11;171.55;;;157.27;;
38226;SDS011;24026;49.446;8.576;2023-06-19T11:04:32;172.02;;;157.75;;
38226;SDS011;24026;49.446;8.576;2023-06-19T11:06:58;173.52;;;159.20;;
38226;SDS011;24026;49.446;8.576;2023-06-19T11:09:25;174.00;;;159.73;;
38226;SDS011;24026;49.446;8.576;2023-06-19T11:11:48;172.25;;;157.98;;
38226;SDS011;24026;49.446;8.576;2023-06-19T11:14:10;174.15;;;159.57;;
38226;SDS011;24026;49.446;8.576;2023-06-19T11:16:33;170.93;;;156.87;;
38226;SDS011;24026;49.446;8.576;2023-06-19T11:18:57;173.75;;;159.15;;
38226;SDS011;24026;49.446;8.576;2023-06-19T11:21:18;170.30;;;156.17;;
38226;SDS011;24026;49.446;8.576;2023-06-19T11:23:39;172.20;;;157.80;;
38226;SDS011;24026;49.446;8.576;2023-06-19T11:26:02;173.65;;;159.15;;
38226;SDS011;24026;49.446;8.576;2023-06-19T11:28:26;173.90;;;159.40;;
38226;SDS011;24026;49.446;8.576;2023-06-19T11:30:47;174.65;;;160.30;;
38226;SDS011;24026;49.446;8.576;2023-06-19T11:33:20;174.75;;;160.43;;
38226;SDS011;24026;49.446;8.576;2023-06-19T11:35:50;173.25;;;158.90;;
38226;SDS011;24026;49.446;8.576;2023-06-19T11:38:15;172.90;;;158.63;;
38226;SDS011;24026;49.446;8.576;2023-06-19T11:40:50;172.93;;;158.52;;
38226;SDS011;24026;49.446;8.576;2023-06-19T11:43:10;173.38;;;158.95;;
38226;SDS011;24026;49.446;8.576;2023-06-19T11:45:31;173.00;;;158.65;;
38226;SDS011;24026;49.446;8.576;2023-06-19T11:47:52;173.35;;;159.05;;
38226;SDS011;24026;49.446;8.576;2023-06-19T11:50:13;171.55;;;157.40;;
38226;SDS011;24026;49.446;8.576;2023-06-19T11:52:35;173.05;;;158.55;;
38226;SDS011;24026;49.446;8.576;2023-06-19T11:54:57;177.05;;;162.52;;
38226;SDS011;24026;49.446;8.576;2023-06-19T11:57:17;174.88;;;160.40;;
38226;SDS011;24026;49.446;8.576;2023-06-19T11:59:42;175.52;;;160.95;;
38226;SDS011;24026;49.446;8.576;2023-06-19T12:02:03;174.60;;;160.00;;
38226;SDS011;24026;49.446;8.576;2023-06-19T12:04:24;176.00;;;161.63;;
38226;SDS011;24026;49.446;8.576;2023-06-19T12:06:44;172.98;;;158.75;;
38226;SDS011;24026;49.446;8.576;2023-06-19T12:09:06;174.93;;;160.30;;
38226;SDS011;24026;49.446;8.576;2023-06-19T12:11:26;174.13;;;159.23;;
38226;SDS011;24026;49.446;8.576;2023-06-19T12:13:47;173.70;;;159.43;;
38226;SDS011;24026;49.446;8.576;2023-06-19T12:16:08;174.18;;;159.98;;
38226;SDS011;24026;49.446;8.576;2023-06-19T12:18:29;173.43;;;159.18;;
38226;SDS011;24026;49.446;8.576;2023-06-19T12:20:50;174.27;;;159.88;;
38226;SDS011;24026;49.446;8.576;2023-06-19T12:23:10;174.05;;;159.65;;
38226;SDS011;24026;49.446;8.576;2023-06-19T12:25:31;173.75;;;159.40;;
38226;SDS011;24026;49.446;8.576;2023-06-19T12:27:52;173.20;;;159.02;;
38226;SDS011;24026;49.446;8.576;2023-06-19T12:30:15;173.80;;;159.57;;
38226;SDS011;24026;49.446;8.576;2023-06-19T12:32:36;173.18;;;158.77;;
38226;SDS011;24026;49.446;8.576;2023-06-19T12:34:56;173.43;;;159.25;;
38226;SDS011;24026;49.446;8.576;2023-06-19T12:37:17;173.30;;;159.02;;
38226;SDS011;24026;49.446;8.576;2023-06-19T12:39:38;175.23;;;160.98;;
38226;SDS011;24026;49.446;8.576;2023-06-19T12:42:00;177.73;;;163.02;;
38226;SDS011;24026;49.446;8.576;2023-06-19T12:44:21;176.27;;;161.73;;
38226;SDS011;24026;49.446;8.576;2023-06-19T12:46:41;175.07;;;160.60;;
38226;SDS011;24026;49.446;8.576;2023-06-19T12:49:02;178.05;;;163.05;;
38226;SDS011;24026;49.446;8.576;2023-06-19T12:51:22;188.07;;;172.35;;
38226;SDS011;24026;49.446;8.576;2023-06-19T12:53:43;185.82;;;170.13;;
38226;SDS011;24026;49.446;8.576;2023-06-19T12:56:04;183.27;;;167.68;;
38226;SDS011;24026;49.446;8.576;2023-06-19T12:58:24;182.18;;;166.73;;
38226;SDS011;24026;49.446;8.576;2023-06-19T13:00:45;183.38;;;167.80;;
38226;SDS011;24026;49.446;8.576;2023-06-19T13:03:05;182.07;;;166.60;;
38226;SDS011;24026;49.446;8.576;2023-06-19T13:05:25;181.80;;;165.98;;
38226;SDS011;24026;49.446;8.576;2023-06-19T13:07:46;185.82;;;169.93;;
38226;SDS011;24026;49.446;8.576;2023-06-19T13:10:06;184.90;;;169.25;;
38226;SDS011;24026;49.446;8.576;2023-06-19T13:12:28;184.45;;;169.35;;
38226;SDS011;24026;49.446;8.576;2023-06-19T13:14:48;185.98;;;170.73;;
38226;SDS011;24026;49.446;8.576;2023-06-19T13:17:09;184.52;;;169.38;;
38226;SDS011;24026;49.446;8.576;2023-06-19T13:19:31;183.50;;;168.60;;
38226;SDS011;24026;49.446;8.576;2023-06-19T13:21:52;180.15;;;165.20;;
38226;SDS011;24026;49.446;8.576;2023-06-19T13:24:12;179.60;;;164.85;;
38226;SDS011;24026;49.446;8.576;2023-06-19T13:26:33;180.75;;;166.00;;